Time;durP1;ratioP1;P1;durP2;ratioP2;P2;SDS_P1;SDS_P2;PMS_P1;PMS_P2;Temp;Humidity;BMP_temperature;BMP_pressure;BME280_temperature;BME280_humidity;BME280_pressure;Samples;Min_cycle;Max_cycle;Signal;HPM_P1;HPM_P2
2020/12/17 00:00:42;;;;;;;13.23;11.90;;;;;;;13.57;63.96;101187.84;5033756;28;20032;-78
2020/12/17 00:03:07;;;;;;;14.00;12.63;;;;;;;13.50;64.42;101191.59;5070530;28;20043;-79
2020/12/17 00:05:33;;;;;;;12.63;11.43;;;;;;;13.60;64.15;101198.34;5072043;28;20785;-79
2020/12/17 00:07:58;;;;;;;14.93;13.57;;;;;;;13.58;64.23;101196.91;5064539;28;20036;-79
2020/12/17 00:10:24;;;;;;;15.18;13.18;;;;;;;13.58;64.26;101194.16;5054697;28;20486;-80
2020/12/17 00:12:49;;;;;;;15.07;13.68;;;;;;;13.60;64.10;101201.06;5065450;28;20036;-79
2020/12/17 00:15:17;;;;;;;15.20;13.88;;;;;;;13.54;64.56;101204.63;5067799;28;20040;-79
2020/12/17 00:17:50;;;;;;;14.32;12.93;;;;;;;13.62;64.40;101195.41;5055833;28;20028;-79
2020/12/17 00:20:18;;;;;;;13.82;12.50;;;;;;;13.60;64.25;101205.72;5075118;28;20023;-79
2020/12/17 00:22:44;;;;;;;14.45;12.18;;;;;;;13.59;64.65;101204.03;5063458;28;20033;-79
2020/12/17 00:25:15;;;;;;;16.23;14.70;;;;;;;13.54;64.61;101188.25;5054161;28;20119;-80
2020/12/17 00:27:42;;;;;;;15.02;13.55;;;;;;;13.54;64.83;101190.97;5069975;28;20032;-79
2020/12/17 00:30:11;;;;;;;15.10;11.73;;;;;;;13.48;65.20;101196.44;5067992;28;20043;-78
2020/12/17 00:32:37;;;;;;;14.50;13.10;;;;;;;13.57;64.68;101192.47;5058543;28;20103;-79
2020/12/17 00:35:04;;;;;;;14.40;13.07;;;;;;;13.61;64.92;101197.31;5071623;28;20036;-79
2020/12/17 00:37:34;;;;;;;15.93;13.15;;;;;;;13.64;64.67;101195.19;5075034;28;20036;-79
2020/12/17 00:40:00;;;;;;;15.68;14.27;;;;;;;13.56;64.85;101191.63;5049400;28;20043;-80
2020/12/17 00:42:26;;;;;;;14.80;13.20;;;;;;;13.57;64.96;101206.97;5064312;28;20083;-79
2020/12/17 00:44:51;;;;;;;13.73;12.32;;;;;;;13.56;65.07;101191.63;5049694;28;20359;-79
2020/12/17 00:47:17;;;;;;;13.43;12.23;;;;;;;13.53;65.28;101189.31;5062759;28;20078;-80
2020/12/17 00:49:46;;;;;;;14.27;13.00;;;;;;;13.56;65.13;101191.63;5031806;28;20047;-80
2020/12/17 00:52:14;;;;;;;14.25;12.63;;;;;;;13.59;65.03;101190.34;5071361;28;20032;-81
2020/12/17 00:54:40;;;;;;;15.93;14.43;;;;;;;13.61;65.13;101194.56;5066431;28;20039;-81
2020/12/17 00:57:07;;;;;;;17.23;15.50;;;;;;;13.57;65.25;101190.56;5067374;28;20033;-81
2020/12/17 00:59:32;;;;;;;14.00;12.70;;;;;;;13.59;65.05;101207.63;5067155;28;20391;-81
2020/12/17 01:01:58;;;;;;;13.95;12.65;;;;;;;13.59;65.29;101193.94;5073081;28;20031;-81
2020/12/17 01:04:23;;;;;;;17.80;16.00;;;;;;;13.57;65.49;101193.28;5072709;28;20478;-82
2020/12/17 01:06:49;;;;;;;17.75;16.13;;;;;;;13.59;65.54;101199.41;5069752;28;20048;-81
2020/12/17 01:09:14;;;;;;;14.45;13.05;;;;;;;13.60;65.58;101205.72;5051106;28;20094;-81
2020/12/17 01:11:40;;;;;;;13.23;11.95;;;;;;;13.63;65.56;101204.47;5065768;28;20031;-80
2020/12/17 01:14:05;;;;;;;13.98;12.52;;;;;;;13.59;65.64;101198.56;5063448;28;20056;-81
2020/12/17 01:16:30;;;;;;;14.30;11.98;;;;;;;13.64;65.68;101198.78;5020072;28;20040;-80
2020/12/17 01:18:56;;;;;;;12.52;10.98;;;;;;;13.56;66.04;101202.56;5055300;28;20040;-80
2020/12/17 01:21:22;;;;;;;13.13;11.82;;;;;;;13.63;65.79;101199.84;5066510;28;20058;-79
2020/12/17 01:23:48;;;;;;;15.32;12.32;;;;;;;13.64;65.90;101215.19;5070580;28;20183;-81
2020/12/17 01:26:13;;;;;;;15.57;12.77;;;;;;;13.67;66.00;101206.56;5052921;28;20140;-80
2020/12/17 01:28:40;;;;;;;14.10;12.70;;;;;;;13.65;66.05;101199.63;5068199;28;20024;-79
2020/12/17 01:31:10;;;;;;;12.55;11.25;;;;;;;13.64;65.97;101212.47;5066491;28;20535;-79
2020/12/17 01:33:37;;;;;;;13.23;11.93;;;;;;;13.70;65.96;101208.03;5047990;28;20040;-79
2020/12/17 01:36:04;;;;;;;15.25;13.65;;;;;;;13.64;66.08;101219.78;5076582;28;20055;-80
2020/12/17 01:38:30;;;;;;;17.08;12.90;;;;;;;13.60;66.20;101212.00;5064757;28;20489;-79
2020/12/17 01:40:55;;;;;;;12.88;11.55;;;;;;;13.72;66.01;101220.44;5040159;28;20035;-79
2020/12/17 01:43:21;;;;;;;13.15;11.70;;;;;;;13.66;66.19;101206.78;5071093;28;20048;-79
2020/12/17 01:45:46;;;;;;;15.10;13.70;;;;;;;13.70;66.02;101211.63;5048008;28;20036;-79
2020/12/17 01:48:15;;;;;;;17.73;16.08;;;;;;;13.72;65.88;101216.88;5066087;28;20111;-79
2020/12/17 01:50:40;;;;;;;16.38;14.68;;;;;;;13.71;66.22;101216.03;5050688;28;20032;-80
2020/12/17 01:53:05;;;;;;;16.75;14.23;;;;;;;13.75;65.92;101216.47;5051404;28;20036;-79
2020/12/17 01:55:31;;;;;;;14.63;13.23;;;;;;;13.71;66.02;101218.75;5068088;28;20036;-78
2020/12/17 01:58:00;;;;;;;16.48;14.80;;;;;;;13.69;66.06;101222.78;5068326;28;20059;-79
2020/12/17 02:00:28;;;;;;;15.50;13.85;;;;;;;13.69;66.51;101223.59;5054055;28;20028;-80
2020/12/17 02:02:53;;;;;;;15.63;14.05;;;;;;;13.76;66.13;101215.41;5067240;28;20036;-79
2020/12/17 02:05:19;;;;;;;14.93;13.38;;;;;;;13.75;65.97;101220.03;5069301;28;20474;-80
2020/12/17 02:07:44;;;;;;;18.02;13.27;;;;;;;13.78;65.96;101221.53;5076150;28;20025;-80
2020/12/17 02:10:11;;;;;;;15.23;13.75;;;;;;;13.72;66.12;101215.00;5050813;28;20029;-79
2020/12/17 02:12:44;;;;;;;14.63;13.13;;;;;;;13.74;65.93;101223.81;5066042;28;20024;-80
2020/12/17 02:15:10;;;;;;;13.73;12.32;;;;;;;13.75;65.86;101222.78;5065933;28;20091;-80
2020/12/17 02:17:35;;;;;;;21.58;14.27;;;;;;;13.70;65.96;101225.28;5049008;28;20562;-80
2020/12/17 02:20:04;;;;;;;13.95;12.48;;;;;;;13.75;65.93;101228.25;5034781;28;20044;-80
2020/12/17 02:22:30;;;;;;;16.20;13.30;;;;;;;13.69;65.85;101225.50;5067197;28;20466;-80
2020/12/17 02:24:55;;;;;;;13.98;12.57;;;;;;;13.72;66.36;101225.91;5049276;28;20029;-80
2020/12/17 02:27:20;;;;;;;14.63;13.20;;;;;;;13.71;65.88;101216.03;5072031;28;20098;-80
2020/12/17 02:29:46;;;;;;;24.05;16.13;;;;;;;13.72;66.13;101211.41;5055520;28;20031;-80
2020/12/17 02:32:11;;;;;;;16.15;14.63;;;;;;;13.75;66.20;101208.28;5068504;28;20101;-80
2020/12/17 02:34:37;;;;;;;14.98;13.63;;;;;;;13.74;65.97;101203.84;5052800;28;20037;-79
2020/12/17 02:37:03;;;;;;;16.55;13.57;;;;;;;13.67;66.37;101203.84;5034277;28;20048;-80
2020/12/17 02:39:28;;;;;;;17.27;15.48;;;;;;;13.72;66.10;101201.31;5073892;28;20058;-80
2020/12/17 02:41:53;;;;;;;15.70;14.02;;;;;;;13.71;66.14;101207.00;5053043;28;20025;-80
2020/12/17 02:44:19;;;;;;;16.88;13.80;;;;;;;13.71;66.29;101213.28;5063157;28;20940;-79
2020/12/17 02:46:45;;;;;;;15.23;13.73;;;;;;;13.68;66.42;101215.59;5069970;28;20040;-79
2020/12/17 02:49:10;;;;;;;15.70;13.38;;;;;;;13.73;66.06;101215.81;5074813;28;20020;-80
2020/12/17 02:51:38;;;;;;;15.10;13.60;;;;;;;13.73;66.02;101208.47;5051441;28;20040;-81
2020/12/17 02:54:04;;;;;;;14.75;13.15;;;;;;;13.76;66.04;101215.41;5077942;28;20098;-81
2020/12/17 02:56:29;;;;;;;19.17;15.73;;;;;;;13.76;65.97;101215.41;5049748;28;20037;-80
2020/12/17 02:58:54;;;;;;;14.85;13.18;;;;;;;13.76;65.97;101209.94;5044509;28;20036;-80
2020/12/17 03:01:20;;;;;;;15.98;13.38;;;;;;;13.76;66.28;101201.72;5070795;28;20062;-80
2020/12/17 03:03:45;;;;;;;16.77;13.98;;;;;;;13.77;65.92;101208.91;5034928;28;20113;-80
2020/12/17 03:06:11;;;;;;;17.65;15.88;;;;;;;13.79;66.00;101206.78;5069575;28;20041;-81
2020/12/17 03:08:37;;;;;;;16.70;14.50;;;;;;;13.77;66.02;101203.44;5074801;28;20044;-80
2020/12/17 03:11:02;;;;;;;17.38;15.57;;;;;;;13.74;66.13;101206.56;5072069;28;20471;-80
2020/12/17 03:13:27;;;;;;;16.30;14.25;;;;;;;13.78;66.19;101208.69;5057078;28;20059;-81
2020/12/17 03:15:53;;;;;;;19.02;15.70;;;;;;;13.79;66.22;101206.78;5053942;28;20048;-81
2020/12/17 03:18:18;;;;;;;22.08;17.63;;;;;;;13.76;66.24;101218.13;5069400;28;20048;-81
2020/12/17 03:20:44;;;;;;;16.98;14.48;;;;;;;13.77;66.18;101209.72;5062282;28;20399;-80
2020/12/17 03:23:10;;;;;;;17.05;15.25;;;;;;;13.72;66.32;101209.53;5037788;28;20024;-80
2020/12/17 03:25:35;;;;;;;17.63;15.60;;;;;;;13.65;66.40;101216.84;5078977;28;20486;-80
2020/12/17 03:28:00;;;;;;;15.82;14.23;;;;;;;13.70;66.54;101225.28;5039153;28;20033;-80
2020/12/17 03:30:26;;;;;;;15.25;12.95;;;;;;;13.72;66.33;101216.88;5049931;28;20383;-80
2020/12/17 03:32:51;;;;;;;16.23;14.50;;;;;;;13.67;66.63;101214.78;5065365;28;20607;-80
2020/12/17 03:35:17;;;;;;;18.40;16.50;;;;;;;13.69;66.63;101225.50;5055929;28;20047;-80
2020/12/17 03:37:42;;;;;;;18.20;16.30;;;;;;;13.67;66.62;101219.38;5052928;28;20148;-81
2020/12/17 03:40:07;;;;;;;16.50;14.82;;;;;;;13.74;66.56;101226.53;5054965;28;20032;-81
2020/12/17 03:42:33;;;;;;;17.02;15.15;;;;;;;13.59;66.95;101228.63;5076443;28;20509;-80
2020/12/17 03:44:58;;;;;;;15.40;13.57;;;;;;;13.65;66.79;101236.00;5069221;28;20070;-81
2020/12/17 03:47:24;;;;;;;15.88;14.20;;;;;;;13.72;66.64;101239.59;5071861;28;20456;-81
2020/12/17 03:49:49;;;;;;;18.27;14.02;;;;;;;13.58;67.15;101244.19;5070538;28;20036;-81
2020/12/17 03:52:15;;;;;;;17.55;14.68;;;;;;;13.66;67.15;101245.06;5078598;28;20505;-80
2020/12/17 03:54:40;;;;;;;15.77;14.10;;;;;;;13.76;66.46;101240.00;5050886;28;20041;-81
2020/12/17 03:57:06;;;;;;;14.98;13.43;;;;;;;13.73;66.63;101244.00;5073032;28;20086;-82
2020/12/17 03:59:31;;;;;;;17.70;15.13;;;;;;;13.70;66.64;101235.38;5047065;28;20091;-83
2020/12/17 04:01:56;;;;;;;16.08;14.48;;;;;;;13.72;66.49;101241.50;5032155;28;20039;-81
2020/12/17 04:04:22;;;;;;;16.80;14.00;;;;;;;13.53;67.15;101246.69;5057339;28;20044;-79
2020/12/17 04:06:47;;;;;;;17.85;14.27;;;;;;;13.61;66.94;101243.78;5069580;28;20066;-80
2020/12/17 04:09:13;;;;;;;16.88;15.07;;;;;;;13.68;66.97;101240.22;5051537;28;20670;-81
2020/12/17 04:11:39;;;;;;;19.23;15.25;;;;;;;13.58;67.21;101238.72;5069209;28;20037;-81
2020/12/17 04:14:04;;;;;;;15.43;13.77;;;;;;;13.71;66.89;101248.00;5067084;28;22411;-81
2020/12/17 04:16:30;;;;;;;16.45;13.15;;;;;;;13.75;67.00;101243.81;5067580;28;20024;-82
2020/12/17 04:18:55;;;;;;;15.68;12.80;;;;;;;13.64;66.76;101248.00;5081237;28;20028;-78
2020/12/17 04:21:20;;;;;;;18.88;14.48;;;;;;;13.60;67.20;101244.81;5051711;28;20123;-81
2020/12/17 04:23:46;;;;;;;16.70;13.82;;;;;;;13.67;66.93;101253.03;5063716;28;20044;-80
2020/12/17 04:26:13;;;;;;;14.88;13.20;;;;;;;13.69;66.93;101250.09;5066556;28;20087;-82
2020/12/17 04:28:38;;;;;;;18.30;15.38;;;;;;;13.61;67.37;101259.34;5071372;28;20024;-81
2020/12/17 04:31:03;;;;;;;15.75;13.65;;;;;;;13.52;67.39;101255.94;5064712;28;20487;-78
2020/12/17 04:33:29;;;;;;;20.05;13.57;;;;;;;13.53;67.70;101265.84;5056349;28;20036;-81
2020/12/17 04:35:54;;;;;;;18.35;13.80;;;;;;;13.66;67.13;101259.53;5073835;28;20460;-82
2020/12/17 04:38:20;;;;;;;20.88;15.05;;;;;;;13.57;67.35;101253.41;5068188;28;20576;-82
2020/12/17 04:40:45;;;;;;;23.83;15.27;;;;;;;13.65;66.92;101260.59;5049960;28;20028;-81
2020/12/17 04:43:10;;;;;;;20.45;15.60;;;;;;;13.63;67.12;101261.84;5069385;28;20390;-81
2020/12/17 04:45:39;;;;;;;21.77;16.08;;;;;;;13.56;67.37;101261.81;5051972;28;20035;-80
2020/12/17 04:48:07;;;;;;;21.17;16.25;;;;;;;13.70;66.82;101255.38;5069748;28;20699;-81
2020/12/17 04:50:34;;;;;;;20.05;14.77;;;;;;;13.72;66.86;101256.00;5075932;28;20032;-80
2020/12/17 04:53:01;;;;;;;17.58;14.93;;;;;;;13.72;66.78;101256.00;5051965;28;20119;-82
2020/12/17 04:55:29;;;;;;;19.42;15.30;;;;;;;13.65;67.00;101260.59;5065779;28;20041;-81
2020/12/17 04:57:58;;;;;;;19.30;15.95;;;;;;;13.56;67.36;101251.75;5063994;28;20082;-80
2020/12/17 05:00:23;;;;;;;26.58;17.80;;;;;;;13.71;66.90;101248.00;5063626;28;20028;-81
2020/12/17 05:02:48;;;;;;;22.33;17.50;;;;;;;13.63;66.87;101246.28;5069457;28;20032;-80
2020/12/17 05:05:14;;;;;;;25.10;18.00;;;;;;;13.72;66.76;101239.59;5071472;28;20394;-80
2020/12/17 05:07:41;;;;;;;21.73;17.08;;;;;;;13.71;66.55;101240.63;5071024;28;20418;-81
2020/12/17 05:10:07;;;;;;;22.48;19.80;;;;;;;13.74;66.59;101247.56;5053588;28;20085;-81
2020/12/17 05:12:32;;;;;;;24.33;17.55;;;;;;;13.75;66.81;101246.53;5050759;28;20032;-80
2020/12/17 05:14:58;;;;;;;22.95;18.70;;;;;;;13.72;66.89;101253.25;5064748;28;20112;-81
2020/12/17 05:17:24;;;;;;;21.55;17.63;;;;;;;13.50;67.33;101254.44;5062394;28;20090;-79
2020/12/17 05:19:50;;;;;;;22.85;18.52;;;;;;;13.68;67.11;101251.13;5069058;28;20107;-79
2020/12/17 05:22:17;;;;;;;28.15;21.63;;;;;;;13.62;67.37;101258.25;5073821;28;20055;-78
2020/12/17 05:24:44;;;;;;;23.83;20.58;;;;;;;13.56;67.42;101262.69;5069058;28;20579;-78
2020/12/17 05:27:11;;;;;;;26.13;20.17;;;;;;;13.53;67.48;101262.22;5073720;28;20028;-80
2020/12/17 05:29:38;;;;;;;27.60;21.42;;;;;;;13.55;67.36;101269.19;5070100;28;20037;-78
2020/12/17 05:32:04;;;;;;;26.83;20.50;;;;;;;13.47;67.66;101273.97;5068709;28;20482;-80
2020/12/17 05:34:29;;;;;;;26.95;21.23;;;;;;;13.36;68.06;101267.22;5066199;28;20027;-80
2020/12/17 05:36:55;;;;;;;27.45;23.33;;;;;;;13.55;67.53;101279.28;5071713;28;20098;-80
2020/12/17 05:39:22;;;;;;;26.00;20.30;;;;;;;13.58;67.30;101276.16;5072779;28;20028;-80
2020/12/17 05:41:50;;;;;;;25.38;21.80;;;;;;;13.57;67.13;101291.69;5054721;28;20120;-78
2020/12/17 05:44:21;;;;;;;23.52;20.13;;;;;;;13.52;67.52;101296.09;5067592;28;20094;-79
2020/12/17 05:46:48;;;;;;;30.48;21.92;;;;;;;13.48;67.35;101287.44;5068346;28;20032;-80
2020/12/17 05:49:26;;;;;;;26.95;20.73;;;;;;;13.48;67.56;101290.19;5054081;28;20036;-79
2020/12/17 05:52:14;;;;;;;25.58;20.73;;;;;;;13.53;67.50;101295.88;5067792;28;20082;-79
2020/12/17 05:55:03;;;;;;;27.08;20.08;;;;;;;13.58;67.42;101309.78;5054513;28;20539;-80
2020/12/17 05:57:29;;;;;;;28.30;20.95;;;;;;;13.56;67.44;101316.47;5071490;28;20131;-79
2020/12/17 05:59:56;;;;;;;27.48;22.52;;;;;;;13.46;67.84;101322.34;5044928;28;20115;-80
2020/12/17 06:02:26;;;;;;;27.20;20.55;;;;;;;13.42;67.97;101321.03;5067845;28;20025;-78
2020/12/17 06:05:03;;;;;;;30.17;20.83;;;;;;;13.52;67.55;101324.25;5070814;28;20143;-77
2020/12/17 06:07:51;;;;;;;26.10;19.98;;;;;;;13.36;67.83;101321.84;5047297;28;20028;-80
2020/12/17 06:10:22;;;;;;;22.30;17.05;;;;;;;13.43;67.64;101323.56;5061498;28;20025;-78
2020/12/17 06:12:50;;;;;;;24.63;19.83;;;;;;;13.43;67.39;101328.22;5068958;28;20028;-78
2020/12/17 06:15:21;;;;;;;26.35;19.92;;;;;;;13.30;67.87;101319.91;5065539;28;20106;-79
2020/12/17 06:17:55;;;;;;;23.95;19.92;;;;;;;13.38;67.64;101323.34;5070391;28;20090;-78
2020/12/17 06:20:22;;;;;;;23.05;18.13;;;;;;;13.33;67.35;101328.59;5081145;28;20115;-78
2020/12/17 06:22:51;;;;;;;28.15;21.50;;;;;;;13.31;67.29;101338.00;5069340;28;20032;-79
2020/12/17 06:25:18;;;;;;;25.83;19.40;;;;;;;13.33;67.44;101338.63;5074980;28;20044;-79
2020/12/17 06:27:49;;;;;;;21.80;19.58;;;;;;;13.44;66.89;101338.09;5072451;28;20072;-78
2020/12/17 06:30:17;;;;;;;19.90;17.42;;;;;;;13.38;67.16;101341.66;5077733;28;20107;-80
2020/12/17 06:32:43;;;;;;;20.70;17.80;;;;;;;13.43;66.79;101333.66;5068497;28;20479;-80
2020/12/17 06:35:26;;;;;;;20.50;16.35;;;;;;;13.39;67.02;101337.84;5057663;28;20036;-79
2020/12/17 06:37:53;;;;;;;19.30;16.77;;;;;;;13.30;67.13;101347.22;5073054;28;20500;-79
2020/12/17 06:40:26;;;;;;;24.52;16.50;;;;;;;13.36;66.94;101338.25;5075111;28;20712;-80
2020/12/17 06:42:51;;;;;;;19.58;15.48;;;;;;;13.26;67.16;101333.97;5059491;28;20512;-78
2020/12/17 06:45:30;;;;;;;16.70;14.95;;;;;;;13.27;67.10;101337.56;5070250;28;20032;-79
2020/12/17 06:47:56;;;;;;;17.50;14.05;;;;;;;13.20;66.99;101332.03;5074282;28;20641;-79
2020/12/17 06:50:28;;;;;;;20.10;14.75;;;;;;;13.22;67.13;101343.63;5075559;28;20130;-79
2020/12/17 06:53:14;;;;;;;19.98;16.77;;;;;;;13.20;66.74;101342.97;5080779;28;20107;-79
2020/12/17 06:55:45;;;;;;;12.27;10.15;;;;;;;13.04;67.18;101341.41;5072966;28;20032;-79
2020/12/17 06:58:23;;;;;;;10.70;8.82;;;;;;;13.24;66.95;101355.19;5069317;28;20025;-79
2020/12/17 07:00:53;;;;;;;11.00;9.15;;;;;;;13.20;66.88;101350.34;5054828;28;20069;-80
2020/12/17 07:03:46;;;;;;;9.43;8.60;;;;;;;13.04;67.18;101355.06;5070318;28;20838;-80
2020/12/17 07:06:37;;;;;;;8.88;7.95;;;;;;;13.12;66.61;101356.81;5069983;28;20044;-80
2020/12/17 07:09:04;;;;;;;9.48;8.48;;;;;;;13.17;66.76;101357.03;5059516;28;20044;-79
2020/12/17 07:11:46;;;;;;;8.93;7.35;;;;;;;13.19;66.29;101360.41;5069676;28;20029;-79
2020/12/17 07:14:24;;;;;;;10.02;9.15;;;;;;;13.07;66.51;101356.56;5075400;28;20047;-80
2020/12/17 07:16:51;;;;;;;6.97;6.28;;;;;;;13.04;66.29;101356.97;5070318;28;20024;-79
2020/12/17 07:19:24;;;;;;;8.18;7.22;;;;;;;12.97;66.44;101367.00;5062926;28;20036;-78
2020/12/17 07:22:03;;;;;;;7.97;7.20;;;;;;;12.94;66.12;101375.56;5069498;28;20081;-77
2020/12/17 07:24:34;;;;;;;5.82;4.78;;;;;;;12.97;65.64;101372.44;5076397;28;20029;-79
2020/12/17 07:27:11;;;;;;;6.22;5.72;;;;;;;12.95;65.66;101380.84;5053771;28;20028;-80
2020/12/17 07:29:47;;;;;;;6.00;5.47;;;;;;;12.89;65.73;101387.94;5064753;28;20025;-79
2020/12/17 07:32:25;;;;;;;8.38;6.15;;;;;;;12.77;65.85;101394.97;5049781;28;20028;-79
2020/12/17 07:34:52;;;;;;;10.20;8.13;;;;;;;12.78;65.70;101391.22;5070803;28;20379;-79
2020/12/17 07:37:37;;;;;;;9.50;8.70;;;;;;;12.70;65.82;101396.81;5051677;28;20059;-79
2020/12/17 07:40:21;;;;;;;8.23;7.43;;;;;;;12.68;65.68;101386.09;5068046;28;20075;-78
2020/12/17 07:43:13;;;;;;;7.05;6.63;;;;;;;12.58;66.41;101384.75;5069319;28;20386;-78
2020/12/17 07:45:55;;;;;;;6.30;5.60;;;;;;;12.65;66.41;101385.63;5082030;28;20056;-79
2020/12/17 07:48:44;;;;;;;6.63;6.03;;;;;;;12.76;65.99;101392.44;5069749;28;20032;-79
2020/12/17 07:51:12;;;;;;;4.53;4.13;;;;;;;12.70;65.90;101394.09;5049290;28;20020;-80
2020/12/17 07:53:38;;;;;;;5.57;5.10;;;;;;;12.78;65.89;101406.75;5067435;28;20043;-79
2020/12/17 07:56:06;;;;;;;7.38;6.75;;;;;;;12.69;66.30;101403.31;5076533;28;20119;-80
2020/12/17 07:58:32;;;;;;;5.53;5.13;;;;;;;12.78;66.09;101409.47;5033120;28;20570;-80
2020/12/17 08:00:58;;;;;;;6.13;5.68;;;;;;;12.79;65.97;101408.41;5066091;28;20040;-79
2020/12/17 08:03:24;;;;;;;9.07;8.38;;;;;;;12.88;65.92;101413.56;5068475;28;20037;-80
2020/12/17 08:05:51;;;;;;;7.05;6.55;;;;;;;12.64;66.54;101417.53;5053133;28;20032;-80
2020/12/17 08:08:18;;;;;;;8.45;7.75;;;;;;;12.90;66.13;101421.56;5064021;28;20044;-80
2020/12/17 08:10:45;;;;;;;11.13;10.23;;;;;;;12.89;66.38;101426.16;5067726;28;20029;-80
2020/12/17 08:13:11;;;;;;;9.00;8.20;;;;;;;12.83;66.35;101432.41;5071189;28;20443;-79
2020/12/17 08:15:37;;;;;;;10.07;9.15;;;;;;;12.90;66.39;101427.00;5028831;28;20045;-80
2020/12/17 08:18:04;;;;;;;12.85;11.63;;;;;;;12.88;66.52;101443.59;5067332;28;20112;-79
2020/12/17 08:20:30;;;;;;;13.15;11.77;;;;;;;12.97;66.16;101438.81;5070432;28;20483;-79
2020/12/17 08:22:56;;;;;;;15.52;14.13;;;;;;;12.70;67.42;101438.59;5048183;28;20040;-78
2020/12/17 08:25:26;;;;;;;11.85;10.75;;;;;;;13.02;66.74;101440.94;5072727;28;20040;-79
2020/12/17 08:27:52;;;;;;;13.27;11.87;;;;;;;13.23;66.26;101442.78;5075848;28;20042;-80
2020/12/17 08:30:22;;;;;;;14.13;12.63;;;;;;;13.18;66.41;101442.56;5051001;28;20041;-79
2020/12/17 08:32:50;;;;;;;15.32;13.82;;;;;;;13.22;66.45;101443.84;5066403;28;20584;-80
2020/12/17 08:35:22;;;;;;;17.00;15.35;;;;;;;13.15;66.87;101441.06;5068850;28;20119;-80
2020/12/17 08:37:55;;;;;;;16.63;14.82;;;;;;;13.13;66.83;101453.22;5049813;28;20498;-79
2020/12/17 08:40:26;;;;;;;19.98;16.55;;;;;;;13.27;66.81;101449.56;5065121;28;20072;-81
2020/12/17 08:43:10;;;;;;;19.25;17.42;;;;;;;13.34;66.47;101452.34;5070448;28;20597;-81
2020/12/17 08:45:39;;;;;;;18.73;15.90;;;;;;;13.26;66.80;101462.34;5066327;28;20075;-81
2020/12/17 08:48:15;;;;;;;18.90;16.30;;;;;;;13.35;66.93;101459.53;5066630;28;20020;-80
2020/12/17 08:50:43;;;;;;;18.52;15.27;;;;;;;13.37;66.74;101468.34;5071456;28;20029;-82
2020/12/17 08:53:28;;;;;;;23.13;18.05;;;;;;;13.20;67.17;101474.06;5064999;28;20452;-80
2020/12/17 08:56:23;;;;;;;18.98;16.63;;;;;;;13.43;66.63;101473.03;5066873;28;20042;-81
2020/12/17 08:58:50;;;;;;;22.38;19.98;;;;;;;13.34;66.99;101476.94;5041907;28;20104;-81
2020/12/17 09:01:24;;;;;;;20.67;17.55;;;;;;;13.46;66.59;101478.09;5052875;28;20131;-80
2020/12/17 09:03:50;;;;;;;25.30;17.80;;;;;;;13.62;66.04;101479.66;5066735;28;20399;-81
2020/12/17 09:06:16;;;;;;;23.33;19.63;;;;;;;13.54;66.68;101482.56;5067921;28;20115;-81
2020/12/17 09:08:42;;;;;;;23.48;20.75;;;;;;;13.31;67.19;101491.81;5071316;28;20202;-77
2020/12/17 09:11:29;;;;;;;27.08;22.77;;;;;;;13.73;66.36;101491.91;5071676;28;20048;-80
2020/12/17 09:14:03;;;;;;;20.70;18.42;;;;;;;13.29;67.35;101490.34;5063296;28;20039;-80
2020/12/17 09:16:29;;;;;;;21.92;19.58;;;;;;;13.43;67.27;101500.34;5047521;28;20036;-80
2020/12/17 09:18:57;;;;;;;17.60;15.70;;;;;;;13.60;67.04;101504.44;5058411;28;20106;-81
2020/12/17 09:21:23;;;;;;;22.75;16.27;;;;;;;13.75;66.06;101507.06;5058826;28;20040;-81
2020/12/17 09:23:58;;;;;;;18.42;15.00;;;;;;;13.56;66.74;101514.09;5059191;28;20032;-82
2020/12/17 09:26:24;;;;;;;21.48;16.50;;;;;;;13.86;66.54;101521.25;5058129;28;20036;-81
2020/12/17 09:28:54;;;;;;;24.23;17.05;;;;;;;13.92;66.22;101523.16;5049344;28;20369;-80
2020/12/17 09:31:22;;;;;;;21.98;14.27;;;;;;;13.88;66.35;101517.22;5061670;28;20099;-80
2020/12/17 09:33:47;;;;;;;21.25;15.95;;;;;;;13.97;66.36;101524.22;5057744;28;20376;-80
2020/12/17 09:36:14;;;;;;;24.13;17.15;;;;;;;13.91;66.27;101519.56;5050552;28;20041;-80
2020/12/17 09:38:39;;;;;;;22.55;16.67;;;;;;;14.13;65.45;101530.41;5045842;28;20038;-81
2020/12/17 09:41:05;;;;;;;19.88;13.68;;;;;;;14.43;64.90;101533.69;5037022;28;20395;-81
2020/12/17 09:43:30;;;;;;;19.30;11.55;;;;;;;14.30;65.13;101541.84;5025855;28;20456;-82
2020/12/17 09:45:56;;;;;;;23.52;11.48;;;;;;;14.15;65.00;101534.63;5036161;28;20052;-80
2020/12/17 09:48:30;;;;;;;21.40;14.90;;;;;;;14.12;65.20;101536.94;5037945;28;20045;-80
2020/12/17 09:51:13;;;;;;;28.17;10.63;;;;;;;14.31;65.33;101543.53;5045456;28;20024;-82
2020/12/17 09:53:41;;;;;;;19.00;10.18;;;;;;;14.17;65.47;101547.28;5046483;28;20487;-80
2020/12/17 09:56:10;;;;;;;18.75;8.90;;;;;;;14.50;64.50;101553.72;5045215;28;20043;-80
2020/12/17 09:58:37;;;;;;;24.25;10.05;;;;;;;14.60;64.89;101556.09;5046334;28;20040;-81
2020/12/17 10:01:03;;;;;;;19.00;9.25;;;;;;;15.22;63.56;101558.75;5029762;28;20581;-80
2020/12/17 10:03:29;;;;;;;22.85;9.68;;;;;;;15.10;62.35;101554.94;5009507;28;20041;-80
2020/12/17 10:05:55;;;;;;;27.63;8.75;;;;;;;15.33;62.12;101565.50;5038321;28;20514;-81
2020/12/17 10:08:20;;;;;;;23.35;8.85;;;;;;;15.30;61.62;101569.50;5039810;28;20045;-79
2020/12/17 10:10:45;;;;;;;18.98;8.32;;;;;;;15.69;61.23;101577.94;5040629;28;20458;-80
2020/12/17 10:13:11;;;;;;;19.33;7.22;;;;;;;15.88;59.45;101571.63;5028462;28;20039;-81
2020/12/17 10:15:38;;;;;;;18.77;5.82;;;;;;;15.93;59.25;101569.06;5024116;28;20047;-79
2020/12/17 10:18:04;;;;;;;20.70;6.85;;;;;;;15.52;59.98;101575.66;5031494;28;20078;-80
2020/12/17 10:20:29;;;;;;;16.95;6.10;;;;;;;15.98;60.03;101573.09;5038478;28;20033;-81
2020/12/17 10:22:55;;;;;;;23.25;7.40;;;;;;;16.19;58.61;101574.69;5039700;28;20041;-82
2020/12/17 10:25:21;;;;;;;18.27;6.15;;;;;;;16.38;57.58;101568.31;5038804;28;20495;-82
2020/12/17 10:27:47;;;;;;;25.80;6.60;;;;;;;16.16;57.75;101583.34;5038262;28;20032;-82
2020/12/17 10:30:13;;;;;;;22.73;5.75;;;;;;;16.09;58.26;101586.97;5039368;28;20029;-80
2020/12/17 10:32:38;;;;;;;18.35;6.20;;;;;;;15.87;58.51;101596.53;5038837;28;20064;-81
2020/12/17 10:35:05;;;;;;;23.60;7.00;;;;;;;15.68;59.13;101599.03;5039473;28;20562;-80
2020/12/17 10:37:30;;;;;;;21.88;8.15;;;;;;;15.78;59.17;101600.53;5039370;28;20112;-81
2020/12/17 10:39:56;;;;;;;23.27;6.25;;;;;;;15.56;59.31;101601.56;5027777;28;20056;-80
2020/12/17 10:42:22;;;;;;;25.75;6.57;;;;;;;15.73;58.94;101606.63;5039836;28;20423;-80
2020/12/17 10:44:48;;;;;;;22.42;5.78;;;;;;;15.56;59.87;101603.47;5024950;28;20087;-81
2020/12/17 10:47:14;;;;;;;20.33;5.05;;;;;;;15.47;59.62;101612.97;5022293;28;20124;-81
2020/12/17 10:49:39;;;;;;;17.15;6.47;;;;;;;15.52;59.60;101613.16;5040039;28;20438;-80
2020/12/17 10:52:05;;;;;;;18.85;6.10;;;;;;;15.57;59.79;101607.91;5040039;28;20037;-81
2020/12/17 10:54:30;;;;;;;26.30;6.15;;;;;;;15.44;59.96;101618.88;5039383;28;20025;-81
2020/12/17 10:56:55;;;;;;;26.85;6.90;;;;;;;15.72;58.97;101615.91;5027673;28;20121;-79
2020/12/17 10:59:21;;;;;;;26.88;6.38;;;;;;;16.09;58.25;101617.16;5037996;28;20032;-81
2020/12/17 11:01:46;;;;;;;24.65;6.63;;;;;;;15.96;57.55;101619.94;5039054;28;20499;-80
2020/12/17 11:04:12;;;;;;;26.63;6.18;;;;;;;15.99;57.61;101622.25;5023844;28;21434;-80
2020/12/17 11:06:38;;;;;;;22.30;4.95;;;;;;;15.47;59.01;101622.00;5038981;28;20095;-83
2020/12/17 11:09:06;;;;;;;25.10;6.28;;;;;;;15.60;59.06;101623.06;5037219;28;20045;-82
2020/12/17 11:11:31;;;;;;;25.13;7.35;;;;;;;15.35;59.66;101630.03;5025974;28;20104;-81
2020/12/17 11:13:57;;;;;;;25.60;5.85;;;;;;;15.35;60.32;101635.53;5036381;28;20047;-80
2020/12/17 11:16:22;;;;;;;26.00;5.97;;;;;;;15.63;60.03;101639.97;5021537;28;20553;-80